Station Historical Data
Daily Summary for January 13, 2019 Units:  English    Metric   Both
« Previous Day
Next Day »
Daily Weekly Monthly Yearly Custom
  High: Low: Average:
Temperature: TemperatureF °F 37.2 °F 43.1 °F
Dew Point: DewpointF °F 35.9 °F 42.1 °F
Humidity: Humidity % 95 % 96 %
Wind Speed: WindSpeedMPH mph 0.0 mph 2.3 mph
Wind Gust: WindSpeedGustMPH mph - -
Wind:- - West
Pressure: PressureIn in 30.01 in -
Precipitation: 0.08 in    
Historical Graphs
 
 
Tabular Data for January 13, 2019
Time Temperature Dew Point Pressure Wind Wind Speed Wind Gust Humidity Rainfall Rate (Hourly) solar Conditions
TemperatureF °F DewpointF °F PressureIn in Calm     Humidity % HourlyPrecipIn in SolarRadiationWatts/m^2 W/m2 Conditions
00:04 44.6 °F 43.5 °F 30.01 in Calm     96 % 0.00 in 0.00 W/m2 -RA
00:09 44.6 °F 43.5 °F 30.01 in Calm     96 % 0.00 in 0.00 W/m2 -RA
00:14 44.6 °F 43.5 °F 30.02 in Calm     96 % 0.00 in 0.00 W/m2 -RA
00:19 44.6 °F 43.5 °F 30.02 in Calm     96 % 0.00 in 0.00 W/m2 -RA
00:24 44.6 °F 43.5 °F 30.02 in Calm     96 % 0.00 in 0.00 W/m2 -RA
00:29 44.6 °F 43.5 °F 30.02 in Calm     96 % 0.00 in 0.00 W/m2 -RA
00:34 44.6 °F 43.5 °F 30.02 in Calm     96 % 0.00 in 0.00 W/m2 -RA
00:39 44.7 °F 43.9 °F 30.02 in Calm     97 % 0.00 in 0.00 W/m2 -RA
00:44 44.7 °F 43.9 °F 30.02 in Calm     97 % 0.00 in 0.00 W/m2 -RA
00:49 44.7 °F 43.9 °F 30.02 in Calm     97 % 0.00 in 0.00 W/m2 -RA
00:54 44.7 °F 43.9 °F 30.02 in Calm     97 % 0.00 in 0.00 W/m2 -RA
00:59 44.7 °F 43.9 °F 30.02 in Calm     97 % 0.00 in 0.00 W/m2 -RA
01:04 44.7 °F 43.9 °F 30.02 in Calm     97 % 0.00 in 0.00 W/m2 -RA
01:09 44.8 °F 44.0 °F 30.03 in Calm     97 % 0.00 in 0.00 W/m2 -RA
01:14 44.8 °F 44.0 °F 30.03 in Calm     97 % 0.00 in 0.00 W/m2 -RA
01:19 44.9 °F 44.1 °F 30.03 in Calm     97 % 0.00 in 0.00 W/m2 -RA
01:24 44.9 °F 43.8 °F 30.03 in Calm     96 % 0.00 in 0.00 W/m2 -RA
01:29 44.9 °F 44.1 °F 30.03 in Calm     97 % 0.00 in 0.00 W/m2 -RA
01:34 45.0 °F 44.2 °F 30.03 in Calm     97 % 0.00 in 0.00 W/m2 -RA
01:39 45.1 °F 44.3 °F 30.03 in SE 3.5 mph 0.2 mph 97 % 0.00 in 0.00 W/m2 -RA
01:44 45.1 °F 44.3 °F 30.03 in SE 2.0 mph 0.5 mph 97 % 0.00 in 0.00 W/m2 -RA
01:49 45.2 °F 44.4 °F 30.03 in SE 1.2 mph 0.4 mph 97 % 0.00 in 0.00 W/m2 -RA
01:54 45.2 °F 44.4 °F 30.03 in SSE 2.3 mph 0.9 mph 97 % 0.00 in 0.00 W/m2 -RA
01:59 45.3 °F 44.5 °F 30.03 in SSE 4.0 mph 0.6 mph 97 % 0.00 in 0.00 W/m2 -RA
02:04 45.3 °F 44.5 °F 30.03 in SSE 1.2 mph 0.3 mph 97 % 0.00 in 0.00 W/m2 OVC
02:09 45.3 °F 44.5 °F 30.03 in SSE 2.3 mph 1.7 mph 97 % 0.00 in 0.00 W/m2 OVC
02:14 45.4 °F 44.6 °F 30.03 in SSE 4.0 mph 0.7 mph 97 % 0.00 in 0.00 W/m2 OVC
02:19 45.4 °F 44.6 °F 30.04 in South 2.3 mph 0.2 mph 97 % 0.00 in 0.00 W/m2 OVC
02:24 45.4 °F 44.6 °F 30.04 in Calm     97 % 0.01 in 0.00 W/m2 -RA
02:29 45.4 °F 44.6 °F 30.04 in Calm     97 % 0.01 in 0.00 W/m2 -RA
02:34 45.4 °F 44.6 °F 30.04 in Calm     97 % 0.01 in 0.00 W/m2 -RA
02:39 45.4 °F 44.6 °F 30.03 in Calm     97 % 0.02 in 0.00 W/m2 -RA
02:44 45.4 °F 44.6 °F 30.03 in Calm     97 % 0.02 in 0.00 W/m2 -RA
02:49 45.3 °F 44.5 °F 30.04 in Calm     97 % 0.02 in 0.00 W/m2 -RA
02:54 45.4 °F 44.6 °F 30.03 in Calm     97 % 0.02 in 0.00 W/m2 -RA
02:59 45.3 °F 44.5 °F 30.03 in Calm     97 % 0.02 in 0.00 W/m2 -RA
03:04 45.4 °F 44.6 °F 30.03 in Calm     97 % 0.02 in 0.00 W/m2 OVC
03:09 45.3 °F 44.5 °F 30.03 in Calm     97 % 0.02 in 0.00 W/m2 OVC
03:14 45.3 °F 44.5 °F 30.03 in Calm     97 % 0.02 in 0.00 W/m2 OVC
03:19 45.3 °F 44.5 °F 30.03 in Calm     97 % 0.02 in 0.00 W/m2 OVC
03:24 45.3 °F 44.5 °F 30.03 in Calm     97 % 0.01 in 0.00 W/m2 OVC
03:29 45.3 °F 44.5 °F 30.03 in Calm     97 % 0.01 in 0.00 W/m2 OVC
03:34 45.2 °F 44.4 °F 30.03 in Calm     97 % 0.01 in 0.00 W/m2 OVC
03:39 45.2 °F 44.4 °F 30.04 in WSW 2.3 mph 1.1 mph 97 % 0.00 in 0.00 W/m2 OVC
03:44 45.2 °F 44.4 °F 30.04 in South 2.3 mph 0.4 mph 97 % 0.00 in 0.00 W/m2 OVC
03:49 45.2 °F 44.4 °F 30.03 in Calm     97 % 0.00 in 0.00 W/m2 OVC
03:54 45.2 °F 44.4 °F 30.04 in South 2.3 mph 0.4 mph 97 % 0.00 in 0.00 W/m2 OVC
03:59 45.1 °F 44.3 °F 30.04 in Calm     97 % 0.00 in 0.00 W/m2 OVC
04:04 45.1 °F 44.0 °F 30.03 in South 1.2 mph 0.2 mph 96 % 0.00 in 0.00 W/m2 OVC
04:09 45.1 °F 44.0 °F 30.03 in South 2.3 mph 0.2 mph 96 % 0.00 in 0.00 W/m2 OVC
04:14 45.1 °F 44.3 °F 30.04 in WSW 2.0 mph 0.4 mph 97 % 0.00 in 0.00 W/m2 OVC
04:19 45.1 °F 44.3 °F 30.04 in Calm     97 % 0.00 in 0.00 W/m2 OVC
04:24 45.1 °F 44.3 °F 30.04 in Calm     97 % 0.00 in 0.00 W/m2 OVC
04:29 45.1 °F 44.3 °F 30.04 in Calm     97 % 0.00 in 0.00 W/m2 OVC
04:34 45.1 °F 44.3 °F 30.03 in Calm     97 % 0.00 in 0.00 W/m2 OVC
04:39 45.1 °F 44.3 °F 30.03 in Calm     97 % 0.01 in 0.00 W/m2 RA
04:44 45.0 °F 44.2 °F 30.03 in Calm     97 % 0.02 in 0.00 W/m2 RA
04:49 45.0 °F 44.2 °F 30.04 in Calm     97 % 0.02 in 0.00 W/m2 RA
04:54 45.0 °F 44.2 °F 30.04 in Calm     97 % 0.02 in 0.00 W/m2 OVC
04:59 45.0 °F 44.2 °F 30.04 in Calm     97 % 0.03 in 0.00 W/m2 RA
05:04 45.0 °F 44.2 °F 30.03 in Calm     97 % 0.03 in 0.00 W/m2 RA
05:09 45.0 °F 44.2 °F 30.03 in Calm     97 % 0.03 in 0.00 W/m2 OVC
05:14 45.0 °F 44.2 °F 30.04 in Calm     97 % 0.03 in 0.00 W/m2 OVC
05:19 45.0 °F 44.2 °F 30.04 in Calm     97 % 0.03 in 0.00 W/m2 OVC
05:24 45.0 °F 44.2 °F 30.04 in Calm     97 % 0.04 in 0.00 W/m2 RA
05:29 45.0 °F 44.2 °F 30.04 in Calm     97 % 0.04 in 0.00 W/m2 RA
05:34 44.9 °F 44.1 °F 30.04 in Calm     97 % 0.04 in 0.00 W/m2 OVC
05:39 44.9 °F 44.1 °F 30.05 in Calm     97 % 0.03 in 0.00 W/m2 OVC
05:44 44.9 °F 44.1 °F 30.05 in Calm     97 % 0.02 in 0.00 W/m2 OVC
05:49 44.9 °F 44.1 °F 30.05 in Calm     97 % 0.02 in 0.00 W/m2 OVC
05:54 44.9 °F 44.1 °F 30.05 in Calm     97 % 0.02 in 0.00 W/m2 OVC
05:59 44.9 °F 44.1 °F 30.05 in Calm     97 % 0.01 in 0.00 W/m2 OVC
06:04 44.9 °F 44.1 °F 30.05 in Calm     97 % 0.01 in 0.00 W/m2 -RA
06:09 44.9 °F 44.1 °F 30.05 in Calm     97 % 0.01 in 0.00 W/m2 -RA
06:14 44.9 °F 44.1 °F 30.06 in Calm     97 % 0.01 in 0.00 W/m2 -RA
06:19 44.9 °F 44.1 °F 30.06 in Calm     97 % 0.01 in 0.00 W/m2 -RA
06:24 44.9 °F 44.1 °F 30.06 in Calm     97 % 0.00 in 0.00 W/m2 -RA
06:29 44.9 °F 44.1 °F 30.06 in Calm     97 % 0.00 in 0.00 W/m2 -RA
06:34 44.9 °F 44.1 °F 30.06 in Calm     97 % 0.00 in 0.00 W/m2 -RA
06:39 44.9 °F 44.1 °F 30.07 in Calm     97 % 0.00 in 0.00 W/m2 -RA
06:44 44.9 °F 44.1 °F 30.07 in Calm     97 % 0.00 in 0.00 W/m2 -RA
06:49 44.9 °F 44.1 °F 30.06 in Calm     97 % 0.00 in 0.00 W/m2 -RA
06:54 44.9 °F 44.1 °F 30.06 in Calm     97 % 0.00 in 0.00 W/m2 -RA
06:59 44.9 °F 44.1 °F 30.06 in Calm     97 % 0.00 in 0.00 W/m2 -RA
07:04 44.9 °F 44.1 °F 30.06 in SSW 1.2 mph   97 % 0.00 in 0.00 W/m2 OVC
07:09 44.9 °F 44.1 °F 30.07 in Calm     97 % 0.00 in 0.00 W/m2 OVC
07:14 44.9 °F 44.1 °F 30.07 in Calm     97 % 0.00 in 0.00 W/m2 OVC
07:19 44.9 °F 44.1 °F 30.07 in Calm     97 % 0.00 in 0.00 W/m2 OVC
07:24 44.9 °F 44.1 °F 30.07 in Calm   0.4 mph 97 % 0.00 in 0.00 W/m2 OVC
07:29 44.9 °F 44.1 °F 30.07 in Calm   0.4 mph 97 % 0.00 in 0.00 W/m2 OVC
07:34 45.0 °F 44.2 °F 30.07 in South 2.3 mph 0.4 mph 97 % 0.00 in 0.00 W/m2 OVC
07:39 45.0 °F 44.2 °F 30.07 in WSW 2.3 mph 0.1 mph 97 % 0.00 in 5.00 W/m2 OVC
07:44 45.0 °F 44.2 °F 30.08 in SSW 2.3 mph 0.2 mph 97 % 0.00 in 7.00 W/m2 OVC
07:49 45.0 °F 44.2 °F 30.08 in WSW 2.3 mph 0.5 mph 97 % 0.01 in 7.00 W/m2 RA
07:54 45.0 °F 44.2 °F 30.08 in SSW 2.3 mph 1.4 mph 97 % 0.01 in 7.00 W/m2 RA
07:59 45.0 °F 44.2 °F 30.08 in SSW 2.3 mph 0.8 mph 97 % 0.01 in 11.00 W/m2 OVC
08:04 45.1 °F 44.3 °F 30.08 in South 1.2 mph   97 % 0.01 in 14.00 W/m2 OVC
08:09 45.1 °F 44.3 °F 30.09 in WSW 2.3 mph 1.2 mph 97 % 0.01 in 12.00 W/m2 OVC
08:14 45.1 °F 44.3 °F 30.09 in South 1.2 mph   97 % 0.01 in 14.00 W/m2 OVC
08:19 45.2 °F 44.4 °F 30.09 in SSW 1.2 mph 0.7 mph 97 % 0.01 in 12.00 W/m2 OVC
08:24 45.3 °F 44.5 °F 30.09 in WSW 1.2 mph 0.7 mph 97 % 0.01 in 12.00 W/m2 OVC
08:29 45.3 °F 44.5 °F 30.10 in West 3.5 mph 0.9 mph 97 % 0.01 in 14.00 W/m2 OVC
08:34 45.3 °F 44.5 °F 30.10 in WSW 2.3 mph 0.2 mph 97 % 0.01 in 16.00 W/m2 OVC
08:39 45.4 °F 44.6 °F 30.10 in SW 3.5 mph 1.4 mph 97 % 0.01 in 16.00 W/m2 OVC
08:44 45.4 °F 44.6 °F 30.11 in Calm     97 % 0.01 in 18.00 W/m2 OVC
08:49 45.5 °F 44.7 °F 30.11 in Calm     97 % 0.00 in 19.00 W/m2 OVC
08:54 45.5 °F 44.7 °F 30.11 in WSW 2.3 mph 0.3 mph 97 % 0.00 in 18.00 W/m2 BKN
08:59 45.5 °F 44.7 °F 30.11 in Calm     97 % 0.00 in 19.00 W/m2 BKN
09:04 45.5 °F 44.7 °F 30.11 in Calm     97 % 0.00 in 19.00 W/m2 -RA
09:09 45.6 °F 44.8 °F 30.11 in Calm     97 % 0.00 in 25.00 W/m2 -RA
09:14 45.6 °F 44.8 °F 30.11 in Calm     97 % 0.00 in 26.00 W/m2 -RA
09:19 45.7 °F 44.9 °F 30.12 in Calm     97 % 0.00 in 26.00 W/m2 -RA
09:24 45.7 °F 44.9 °F 30.12 in Calm     97 % 0.00 in 26.00 W/m2 OVC
09:29 45.8 °F 45.0 °F 30.12 in Calm     97 % 0.00 in 33.00 W/m2 OVC
09:34 45.8 °F 45.0 °F 30.12 in Calm     97 % 0.00 in 26.00 W/m2 OVC
09:39 45.9 °F 45.1 °F 30.12 in Calm     97 % 0.00 in 26.00 W/m2 OVC
09:44 46.0 °F 45.2 °F 30.12 in Calm     97 % 0.00 in 30.00 W/m2 -RA
09:49 46.0 °F 45.2 °F 30.13 in Calm     97 % 0.00 in 32.00 W/m2 -RA
09:54 46.1 °F 45.3 °F 30.13 in Calm     97 % 0.00 in 42.00 W/m2 -RA
09:59 46.2 °F 45.4 °F 30.14 in WSW 1.2 mph 0.5 mph 97 % 0.00 in 39.00 W/m2 -RA
10:04 46.3 °F 45.5 °F 30.14 in WSW 1.0 mph 0.6 mph 97 % 0.00 in 35.00 W/m2 OVC
10:09 46.4 °F 45.6 °F 30.14 in Calm     97 % 0.00 in 42.00 W/m2 OVC
10:14 46.5 °F 45.7 °F 30.14 in West 3.5 mph 1.6 mph 97 % 0.00 in 47.00 W/m2 OVC
10:19 46.6 °F 45.8 °F 30.14 in SW 3.5 mph 1.2 mph 97 % 0.00 in 39.00 W/m2 OVC
10:24 46.6 °F 45.8 °F 30.14 in Calm     97 % 0.00 in 33.00 W/m2 OVC
10:29 46.7 °F 45.9 °F 30.14 in Calm     97 % 0.00 in 26.00 W/m2 OVC
10:34 46.7 °F 46.2 °F 30.14 in West 4.0 mph 1.9 mph 98 % 0.00 in 47.00 W/m2 OVC
10:39 46.7 °F 46.2 °F 30.14 in West 3.5 mph 1.9 mph 98 % 0.00 in 65.00 W/m2 OVC
10:44 46.7 °F 46.2 °F 30.13 in West 3.5 mph 2.5 mph 98 % 0.00 in 88.00 W/m2 OVC
10:49 46.7 °F 46.2 °F 30.14 in WSW 3.5 mph 2.3 mph 98 % 0.00 in 74.00 W/m2 OVC
10:54 46.8 °F 46.3 °F 30.14 in WSW 2.3 mph 0.6 mph 98 % 0.00 in 26.00 W/m2 OVC
10:59 46.7 °F 45.9 °F 30.13 in WSW 3.5 mph 2.3 mph 97 % 0.00 in 44.00 W/m2 OVC
11:04 46.5 °F 45.7 °F 30.13 in West 5.8 mph 3.5 mph 97 % 0.00 in 58.00 W/m2 OVC
11:09 46.2 °F 45.4 °F 30.13 in West 5.8 mph 4.0 mph 97 % 0.00 in 54.00 W/m2 OVC
11:14 46.0 °F 45.2 °F 30.14 in WSW 4.6 mph 3.3 mph 97 % 0.00 in 49.00 W/m2 OVC
11:19 46.0 °F 45.2 °F 30.13 in West 5.8 mph 2.8 mph 97 % 0.00 in 44.00 W/m2 OVC
11:24 45.9 °F 45.1 °F 30.13 in West 5.8 mph 3.3 mph 97 % 0.00 in 47.00 W/m2 OVC
11:29 45.9 °F 45.1 °F 30.14 in West 3.5 mph 2.1 mph 97 % 0.00 in 33.00 W/m2 OVC
11:34 45.9 °F 45.1 °F 30.13 in West 3.5 mph 2.1 mph 97 % 0.00 in 28.00 W/m2 OVC
11:39 45.8 °F 45.0 °F 30.13 in West 3.5 mph 3.5 mph 97 % 0.00 in 28.00 W/m2 OVC
11:44 45.6 °F 44.8 °F 30.12 in West 5.8 mph 2.9 mph 97 % 0.00 in 30.00 W/m2 OVC
11:49 45.5 °F 44.7 °F 30.13 in West 3.5 mph 2.0 mph 97 % 0.00 in 32.00 W/m2 OVC
11:54 45.5 °F 44.7 °F 30.13 in West 6.9 mph 4.5 mph 97 % 0.00 in 33.00 W/m2 OVC
11:59 45.4 °F 44.6 °F 30.12 in WSW 3.5 mph 3.2 mph 97 % 0.00 in 40.00 W/m2 OVC
12:04 45.3 °F 44.5 °F 30.12 in WSW 3.5 mph 2.8 mph 97 % 0.00 in 39.00 W/m2 OVC
12:09 45.3 °F 44.5 °F 30.13 in West 3.5 mph 2.4 mph 97 % 0.00 in 32.00 W/m2 OVC
12:14 45.4 °F 44.6 °F 30.13 in West 3.0 mph 2.2 mph 97 % 0.00 in 33.00 W/m2 OVC
12:19 45.3 °F 44.5 °F 30.12 in West 3.5 mph 2.9 mph 97 % 0.00 in 47.00 W/m2 OVC
12:24 45.3 °F 44.5 °F 30.13 in West 3.5 mph 1.6 mph 97 % 0.00 in 46.00 W/m2 OVC
12:29 45.2 °F 44.4 °F 30.13 in West 3.5 mph 2.8 mph 97 % 0.00 in 40.00 W/m2 OVC
12:34 45.1 °F 44.3 °F 30.13 in WSW 4.0 mph 3.2 mph 97 % 0.00 in 37.00 W/m2 OVC
12:39 45.1 °F 44.3 °F 30.13 in West 5.8 mph 3.2 mph 97 % 0.00 in 30.00 W/m2 OVC
12:44 45.0 °F 44.2 °F 30.14 in West 5.8 mph 3.4 mph 97 % 0.00 in 25.00 W/m2 OVC
12:49 44.9 °F 44.1 °F 30.14 in West 3.5 mph 2.9 mph 97 % 0.00 in 23.00 W/m2 OVC
12:54 44.7 °F 43.9 °F 30.14 in West 4.6 mph 2.4 mph 97 % 0.00 in 25.00 W/m2 OVC
12:59 44.5 °F 43.7 °F 30.14 in WSW 6.9 mph 4.1 mph 97 % 0.00 in 23.00 W/m2 OVC
13:04 44.3 °F 43.2 °F 30.14 in West 6.9 mph 3.7 mph 96 % 0.00 in 25.00 W/m2 OVC
13:09 44.1 °F 43.0 °F 30.14 in West 4.0 mph 3.4 mph 96 % 0.00 in 26.00 W/m2 OVC
13:14 44.0 °F 42.9 °F 30.14 in West 3.5 mph 3.1 mph 96 % 0.00 in 26.00 W/m2 OVC
13:19 43.9 °F 42.8 °F 30.15 in West 3.5 mph 3.5 mph 96 % 0.00 in 30.00 W/m2 OVC
13:24 43.8 °F 42.7 °F 30.15 in West 3.5 mph 3.7 mph 96 % 0.00 in 33.00 W/m2 OVC
13:29 43.7 °F 42.6 °F 30.15 in West 3.5 mph 2.9 mph 96 % 0.00 in 28.00 W/m2 OVC
13:34 43.7 °F 42.6 °F 30.15 in WSW 3.5 mph 2.6 mph 96 % 0.00 in 28.00 W/m2 OVC
13:39 43.7 °F 42.6 °F 30.16 in West 3.5 mph 2.6 mph 96 % 0.00 in 30.00 W/m2 OVC
13:44 43.7 °F 42.6 °F 30.16 in WNW 3.5 mph 2.7 mph 96 % 0.00 in 35.00 W/m2 OVC
13:49 43.6 °F 42.5 °F 30.16 in West 6.0 mph 3.0 mph 96 % 0.00 in 35.00 W/m2 OVC
13:54 43.6 °F 42.5 °F 30.16 in WNW 3.5 mph 2.1 mph 96 % 0.00 in 32.00 W/m2 OVC
13:59 43.6 °F 42.5 °F 30.15 in West 3.5 mph 2.3 mph 96 % 0.00 in 26.00 W/m2 OVC
14:04 43.6 °F 42.5 °F 30.16 in West 3.5 mph 1.9 mph 96 % 0.00 in 26.00 W/m2 -RA
14:09 43.6 °F 42.5 °F 30.16 in West 3.5 mph 1.4 mph 96 % 0.00 in 32.00 W/m2 -RA
14:14 43.6 °F 42.5 °F 30.16 in West 3.5 mph 2.1 mph 96 % 0.00 in 26.00 W/m2 -RA
14:19 43.5 °F 42.4 °F 30.16 in West 3.5 mph 2.0 mph 96 % 0.00 in 26.00 W/m2 -RA
14:24 43.4 °F 42.3 °F 30.16 in WSW 3.5 mph 2.5 mph 96 % 0.00 in 25.00 W/m2 -RA
14:29 43.4 °F 42.3 °F 30.16 in West 3.5 mph 1.3 mph 96 % 0.00 in 23.00 W/m2 -RA
14:34 43.3 °F 42.2 °F 30.17 in West 3.5 mph 2.4 mph 96 % 0.00 in 28.00 W/m2 -RA
14:39 43.3 °F 42.2 °F 30.17 in West 6.0 mph 3.1 mph 96 % 0.00 in 30.00 W/m2 -RA
14:44 43.2 °F 42.1 °F 30.17 in West 3.5 mph 3.2 mph 96 % 0.00 in 26.00 W/m2 -RA
14:49 43.2 °F 42.1 °F 30.18 in West 5.8 mph 2.5 mph 96 % 0.00 in 18.00 W/m2 -RA
14:54 43.1 °F 42.0 °F 30.18 in WNW 4.6 mph 2.1 mph 96 % 0.00 in 23.00 W/m2 -RA
14:59 43.1 °F 41.8 °F 30.18 in West 3.5 mph 1.6 mph 95 % 0.00 in 16.00 W/m2 -RA
15:04 43.2 °F 41.9 °F 30.18 in West 2.3 mph 1.4 mph 95 % 0.00 in 14.00 W/m2 OVC
15:09 43.1 °F 41.8 °F 30.18 in WNW 3.5 mph 2.3 mph 95 % 0.00 in 14.00 W/m2 OVC
15:14 43.1 °F 41.8 °F 30.19 in WNW 3.5 mph 2.3 mph 95 % 0.00 in 14.00 W/m2 OVC
15:19 43.0 °F 41.7 °F 30.19 in WNW 3.5 mph 2.4 mph 95 % 0.00 in 11.00 W/m2 OVC
15:24 43.0 °F 41.7 °F 30.20 in WNW 3.5 mph 1.2 mph 95 % 0.01 in 11.00 W/m2 RA
15:29 42.9 °F 41.6 °F 30.20 in WSW 3.5 mph 2.1 mph 95 % 0.01 in 7.00 W/m2 RA
15:34 42.9 °F 41.6 °F 30.20 in West 3.5 mph 2.8 mph 95 % 0.01 in 7.00 W/m2 OVC
15:39 42.8 °F 41.5 °F 30.20 in West 4.6 mph 3.4 mph 95 % 0.01 in 9.00 W/m2 OVC
15:44 42.7 °F 41.4 °F 30.20 in West 3.5 mph 2.9 mph 95 % 0.01 in 5.00 W/m2 OVC
15:49 42.5 °F 41.2 °F 30.20 in West 3.5 mph 2.7 mph 95 % 0.01 in 5.00 W/m2 OVC
15:54 42.4 °F 41.1 °F 30.20 in West 4.0 mph 3.3 mph 95 % 0.01 in 0.00 W/m2 OVC
15:59 42.3 °F 41.0 °F 30.21 in West 3.5 mph 2.2 mph 95 % 0.01 in 0.00 W/m2 OVC
16:04 42.3 °F 41.0 °F 30.21 in WNW 3.5 mph 1.8 mph 95 % 0.01 in 0.00 W/m2 OVC
16:09 42.3 °F 41.0 °F 30.21 in West 3.5 mph 2.3 mph 95 % 0.01 in 0.00 W/m2 OVC
16:14 42.2 °F 40.9 °F 30.21 in West 3.5 mph 2.3 mph 95 % 0.01 in 0.00 W/m2 OVC
16:19 42.1 °F 40.8 °F 30.22 in West 3.5 mph 2.2 mph 95 % 0.01 in 0.00 W/m2 OVC
16:24 42.1 °F 40.8 °F 30.22 in WNW 3.5 mph 2.0 mph 95 % 0.00 in 0.00 W/m2 OVC
16:29 42.0 °F 40.7 °F 30.22 in West 3.5 mph 2.5 mph 95 % 0.00 in 0.00 W/m2 OVC
16:34 42.0 °F 40.7 °F 30.21 in West 3.5 mph 1.9 mph 95 % 0.00 in 0.00 W/m2 OVC
16:39 42.0 °F 40.7 °F 30.22 in WNW 3.5 mph 1.9 mph 95 % 0.00 in 0.00 W/m2 OVC
16:44 42.0 °F 40.7 °F 30.23 in WNW 3.5 mph 3.1 mph 95 % 0.00 in 0.00 W/m2 OVC
16:49 42.0 °F 40.7 °F 30.22 in West 3.5 mph 1.7 mph 95 % 0.00 in 0.00 W/m2 OVC
16:54 42.0 °F 40.9 °F 30.23 in West 2.3 mph 1.2 mph 96 % 0.00 in 0.00 W/m2 OVC
16:59 41.9 °F 40.8 °F 30.23 in West 3.5 mph 2.5 mph 96 % 0.00 in 0.00 W/m2 OVC
17:04 41.8 °F 40.7 °F 30.23 in West 3.5 mph 1.9 mph 96 % 0.00 in 0.00 W/m2 OVC
17:09 41.8 °F 40.5 °F 30.23 in West 2.3 mph 1.4 mph 95 % 0.00 in 0.00 W/m2 OVC
17:14 41.7 °F 40.6 °F 30.23 in WNW 3.5 mph 2.5 mph 96 % 0.00 in 0.00 W/m2 OVC
17:19 41.7 °F 40.6 °F 30.24 in WNW 3.5 mph 1.7 mph 96 % 0.00 in 0.00 W/m2 OVC
17:24 41.7 °F 40.6 °F 30.24 in WNW 5.8 mph 2.0 mph 96 % 0.00 in 0.00 W/m2 OVC
17:29 41.7 °F 40.6 °F 30.25 in West 3.5 mph 2.4 mph 96 % 0.00 in 0.00 W/m2 OVC
17:34 41.6 °F 40.5 °F 30.25 in West 3.5 mph 2.6 mph 96 % 0.00 in 0.00 W/m2 OVC
17:39 41.6 °F 40.5 °F 30.25 in WNW 3.5 mph 2.6 mph 96 % 0.00 in 0.00 W/m2 OVC
17:44 41.5 °F 40.4 °F 30.25 in WNW 3.5 mph 2.2 mph 96 % 0.00 in 0.00 W/m2 OVC
17:49 41.5 °F 40.4 °F 30.26 in WNW 3.5 mph 2.2 mph 96 % 0.00 in 0.00 W/m2 OVC
17:54 41.5 °F 40.4 °F 30.26 in WNW 3.5 mph 1.9 mph 96 % 0.00 in 0.00 W/m2 OVC
17:59 41.5 °F 40.4 °F 30.26 in WNW 4.0 mph 2.7 mph 96 % 0.00 in 0.00 W/m2 OVC
18:04 41.4 °F 40.3 °F 30.26 in WNW 3.5 mph 2.3 mph 96 % 0.00 in 0.00 W/m2 OVC
18:09 41.3 °F 40.2 °F 30.27 in NW 3.5 mph 1.8 mph 96 % 0.00 in 0.00 W/m2 OVC
18:14 41.3 °F 40.2 °F 30.27 in WNW 2.3 mph 1.4 mph 96 % 0.00 in 0.00 W/m2 OVC
18:19 41.3 °F 40.2 °F 30.27 in WNW 2.3 mph 1.8 mph 96 % 0.00 in 0.00 W/m2 OVC
18:24 41.2 °F 40.1 °F 30.27 in WNW 3.5 mph 2.2 mph 96 % 0.00 in 0.00 W/m2 OVC
18:29 41.1 °F 40.0 °F 30.27 in WNW 3.5 mph 1.2 mph 96 % 0.00 in 0.00 W/m2 OVC
18:34 41.1 °F 40.0 °F 30.27 in West 2.3 mph 1.1 mph 96 % 0.00 in 0.00 W/m2 OVC
18:39 41.0 °F 39.9 °F 30.27 in WNW 2.3 mph 1.5 mph 96 % 0.00 in 0.00 W/m2 OVC
18:44 40.9 °F 39.8 °F 30.27 in WNW 2.3 mph 1.6 mph 96 % 0.00 in 0.00 W/m2 OVC
18:49 40.8 °F 39.7 °F 30.27 in WNW 3.5 mph 2.6 mph 96 % 0.00 in 0.00 W/m2 OVC
18:54 40.8 °F 39.7 °F 30.27 in WNW 4.0 mph 2.2 mph 96 % 0.00 in 0.00 W/m2 OVC
18:59 40.7 °F 39.6 °F 30.27 in WNW 3.5 mph 1.6 mph 96 % 0.00 in 0.00 W/m2 OVC
19:04 40.6 °F 39.5 °F 30.27 in NW 3.5 mph 2.4 mph 96 % 0.00 in 0.00 W/m2 OVC
19:09 40.6 °F 39.5 °F 30.28 in NW 3.5 mph 0.8 mph 96 % 0.00 in 0.00 W/m2 OVC
19:14 40.5 °F 39.4 °F 30.28 in WNW 2.3 mph 2.5 mph 96 % 0.00 in 0.00 W/m2 OVC
19:19 40.5 °F 39.4 °F 30.28 in WNW 2.3 mph 0.5 mph 96 % 0.00 in 0.00 W/m2 OVC
19:24 40.4 °F 39.4 °F 30.28 in NW 3.5 mph 2.7 mph 96 % 0.00 in 0.00 W/m2 OVC
19:29 40.4 °F 39.4 °F 30.28 in WNW 3.5 mph 1.9 mph 96 % 0.00 in 0.00 W/m2 OVC
19:34 40.3 °F 39.3 °F 30.28 in NNW 3.5 mph 2.9 mph 96 % 0.00 in 0.00 W/m2 OVC
19:39 40.2 °F 39.2 °F 30.28 in WNW 2.3 mph 1.4 mph 96 % 0.00 in 0.00 W/m2 OVC
19:44 40.2 °F 39.2 °F 30.28 in NW 2.3 mph 1.6 mph 96 % 0.00 in 0.00 W/m2 OVC
19:49 40.1 °F 39.1 °F 30.28 in NW 3.5 mph 1.9 mph 96 % 0.00 in 0.00 W/m2 OVC
19:54 40.1 °F 39.1 °F 30.28 in WNW 4.0 mph 1.8 mph 96 % 0.00 in 0.00 W/m2 OVC
19:59 40.0 °F 39.0 °F 30.28 in NW 2.3 mph 1.4 mph 96 % 0.00 in 0.00 W/m2 OVC
20:04 39.9 °F 38.9 °F 30.28 in Calm   0.8 mph 96 % 0.00 in 0.00 W/m2 OVC
20:09 39.8 °F 38.8 °F 30.28 in WNW 3.5 mph 1.9 mph 96 % 0.00 in 0.00 W/m2 OVC
20:14 39.7 °F 38.7 °F 30.28 in NW 3.5 mph 1.7 mph 96 % 0.00 in 0.00 W/m2 OVC
20:19 39.6 °F 38.6 °F 30.29 in NW 3.5 mph 1.9 mph 96 % 0.00 in 0.00 W/m2 OVC
20:24 39.5 °F 38.5 °F 30.29 in WNW 3.5 mph 2.0 mph 96 % 0.00 in 0.00 W/m2 OVC
20:29 39.5 °F 38.5 °F 30.29 in NW 3.5 mph 1.4 mph 96 % 0.00 in 0.00 W/m2 OVC
20:34 39.4 °F 38.4 °F 30.29 in NW 2.3 mph 1.1 mph 96 % 0.00 in 0.00 W/m2 OVC
20:39 39.4 °F 38.4 °F 30.29 in WNW 3.5 mph 1.9 mph 96 % 0.00 in 0.00 W/m2 OVC
20:44 39.3 °F 38.3 °F 30.29 in NW 2.3 mph 1.3 mph 96 % 0.00 in 0.00 W/m2 OVC
20:49 39.3 °F 38.3 °F 30.30 in NW 1.2 mph 0.1 mph 96 % 0.00 in 0.00 W/m2 OVC
20:54 39.4 °F 38.4 °F 30.29 in WNW 2.3 mph 1.4 mph 96 % 0.00 in 0.00 W/m2 OVC
20:59 39.4 °F 38.4 °F 30.30 in NW 2.3 mph 2.0 mph 96 % 0.00 in 0.00 W/m2 OVC
21:04 39.3 °F 38.3 °F 30.30 in WNW 3.5 mph 2.7 mph 96 % 0.00 in 0.00 W/m2 OVC
21:09 39.1 °F 38.1 °F 30.30 in WNW 3.5 mph 2.2 mph 96 % 0.00 in 0.00 W/m2 OVC
21:14 38.9 °F 37.9 °F 30.30 in NW 5.8 mph 2.4 mph 96 % 0.00 in 0.00 W/m2 OVC
21:19 38.8 °F 37.8 °F 30.30 in NW 3.5 mph 2.3 mph 96 % 0.00 in 0.00 W/m2 OVC
21:24 38.6 °F 37.6 °F 30.30 in West 3.5 mph 2.6 mph 96 % 0.00 in 0.00 W/m2 OVC
21:29 38.5 °F 37.5 °F 30.30 in WNW 3.5 mph 2.4 mph 96 % 0.00 in 0.00 W/m2 OVC
21:34 38.4 °F 37.4 °F 30.30 in WNW 2.3 mph 0.9 mph 96 % 0.00 in 0.00 W/m2 OVC
21:39 38.4 °F 37.4 °F 30.31 in WNW 3.5 mph 2.2 mph 96 % 0.00 in 0.00 W/m2 OVC
21:44 38.3 °F 37.3 °F 30.30 in NW 3.5 mph 1.3 mph 96 % 0.00 in 0.00 W/m2 OVC
21:49 38.3 °F 37.3 °F 30.31 in NW 2.3 mph 1.3 mph 96 % 0.00 in 0.00 W/m2 OVC
21:54 38.2 °F 37.2 °F 30.31 in NW 3.5 mph 2.3 mph 96 % 0.00 in 0.00 W/m2 OVC
21:59 38.2 °F 37.2 °F 30.31 in WNW 3.5 mph 1.7 mph 96 % 0.00 in 0.00 W/m2 OVC
22:04 38.2 °F 37.2 °F 30.30 in NW 3.5 mph 2.2 mph 96 % 0.00 in 0.00 W/m2 OVC
22:09 38.1 °F 36.8 °F 30.31 in WNW 3.5 mph 1.4 mph 95 % 0.00 in 0.00 W/m2 OVC
22:14 38.1 °F 36.8 °F 30.31 in WNW 3.5 mph 2.0 mph 95 % 0.00 in 0.00 W/m2 OVC
22:19 38.1 °F 36.8 °F 30.31 in WNW 3.5 mph 1.2 mph 95 % 0.00 in 0.00 W/m2 OVC
22:24 38.1 °F 36.8 °F 30.31 in WNW 3.0 mph 1.2 mph 95 % 0.00 in 0.00 W/m2 OVC
22:29 38.1 °F 36.8 °F 30.31 in NNW 3.5 mph 1.7 mph 95 % 0.00 in 0.00 W/m2 OVC
22:34 38.0 °F 36.7 °F 30.31 in NW 3.5 mph 1.5 mph 95 % 0.00 in 0.00 W/m2 OVC
22:39 38.0 °F 36.7 °F 30.31 in NW 4.0 mph 2.6 mph 95 % 0.00 in 0.00 W/m2 OVC
22:44 37.9 °F 36.6 °F 30.31 in WNW 3.0 mph 1.8 mph 95 % 0.00 in 0.00 W/m2 OVC
22:49 37.8 °F 36.5 °F 30.31 in WNW 3.5 mph 2.7 mph 95 % 0.00 in 0.00 W/m2 OVC
22:54 37.8 °F 36.5 °F 30.31 in WNW 2.3 mph 1.3 mph 95 % 0.00 in 0.00 W/m2 OVC
22:59 37.8 °F 36.5 °F 30.31 in NW 2.3 mph 1.0 mph 95 % 0.00 in 0.00 W/m2 OVC
23:04 37.7 °F 36.4 °F 30.31 in NW 3.5 mph 1.7 mph 95 % 0.00 in 0.00 W/m2 OVC
23:09 37.7 °F 36.4 °F 30.30 in WNW 3.0 mph 1.5 mph 95 % 0.00 in 0.00 W/m2 OVC
23:14 37.6 °F 36.3 °F 30.30 in NW 3.5 mph 1.5 mph 95 % 0.00 in 0.00 W/m2 OVC
23:19 37.6 °F 36.3 °F 30.30 in NW 3.5 mph 1.6 mph 95 % 0.00 in 0.00 W/m2 OVC
23:24 37.5 °F 36.2 °F 30.30 in WNW 3.5 mph 1.3 mph 95 % 0.00 in 0.00 W/m2 OVC
23:29 37.5 °F 36.2 °F 30.30 in WNW 3.5 mph 1.0 mph 95 % 0.00 in 0.00 W/m2 OVC
23:34 37.5 °F 36.2 °F 30.30 in WNW 2.3 mph 1.2 mph 95 % 0.00 in 0.00 W/m2 OVC
23:39 37.5 °F 36.2 °F 30.30 in WNW 3.5 mph 2.1 mph 95 % 0.00 in 0.00 W/m2 OVC
23:44 37.4 °F 36.1 °F 30.30 in WNW 2.3 mph 0.7 mph 95 % 0.00 in 0.00 W/m2 OVC
23:49 37.3 °F 36.0 °F 30.29 in NNW 3.5 mph 2.0 mph 95 % 0.00 in 0.00 W/m2 OVC
23:54 37.3 °F 36.0 °F 30.29 in NW 3.5 mph 1.3 mph 95 % 0.00 in 0.00 W/m2 OVC
23:59 37.2 °F 35.9 °F 30.29 in NNW 2.3 mph 1.5 mph 95 % 0.00 in 0.00 W/m2 OVC
Murfreesboro Weather Live
Compliments of Weather Underground - 2.5 mb